sensor_id;sensor_type;location;lat;lon;timestamp;P1;durP1;ratioP1;P2;durP2;ratioP2
12689;SDS011;6409;56.294;14.480;2023-11-21T00:00:08;2.83;;;2.73;;
12689;SDS011;6409;56.294;14.480;2023-11-21T00:02:37;2.90;;;2.80;;
12689;SDS011;6409;56.294;14.480;2023-11-21T00:05:07;2.93;;;2.83;;
12689;SDS011;6409;56.294;14.480;2023-11-21T00:07:34;2.90;;;2.80;;
12689;SDS011;6409;56.294;14.480;2023-11-21T00:10:02;2.90;;;2.80;;
12689;SDS011;6409;56.294;14.480;2023-11-21T00:12:30;2.90;;;2.80;;
12689;SDS011;6409;56.294;14.480;2023-11-21T00:14:58;3.10;;;3.00;;
12689;SDS011;6409;56.294;14.480;2023-11-21T00:17:25;3.27;;;3.17;;
12689;SDS011;6409;56.294;14.480;2023-11-21T00:19:52;2.70;;;2.60;;
12689;SDS011;6409;56.294;14.480;2023-11-21T00:22:20;2.70;;;2.60;;
12689;SDS011;6409;56.294;14.480;2023-11-21T00:24:47;2.90;;;2.80;;
12689;SDS011;6409;56.294;14.480;2023-11-21T00:27:14;2.70;;;2.60;;
12689;SDS011;6409;56.294;14.480;2023-11-21T00:29:41;2.90;;;2.80;;
12689;SDS011;6409;56.294;14.480;2023-11-21T00:32:08;3.00;;;2.90;;
12689;SDS011;6409;56.294;14.480;2023-11-21T00:34:35;3.00;;;2.90;;
12689;SDS011;6409;56.294;14.480;2023-11-21T00:37:02;2.80;;;2.70;;
12689;SDS011;6409;56.294;14.480;2023-11-21T00:39:31;2.77;;;2.67;;
12689;SDS011;6409;56.294;14.480;2023-11-21T00:41:58;2.90;;;2.80;;
12689;SDS011;6409;56.294;14.480;2023-11-21T00:44:25;2.80;;;2.70;;
12689;SDS011;6409;56.294;14.480;2023-11-21T00:46:51;2.60;;;2.50;;
12689;SDS011;6409;56.294;14.480;2023-11-21T00:49:19;2.70;;;2.60;;
12689;SDS011;6409;56.294;14.480;2023-11-21T00:51:46;2.60;;;2.50;;
12689;SDS011;6409;56.294;14.480;2023-11-21T00:54:13;2.90;;;2.80;;
12689;SDS011;6409;56.294;14.480;2023-11-21T00:56:43;3.00;;;2.90;;
12689;SDS011;6409;56.294;14.480;2023-11-21T00:59:12;2.90;;;2.80;;
12689;SDS011;6409;56.294;14.480;2023-11-21T01:01:39;3.00;;;2.90;;
12689;SDS011;6409;56.294;14.480;2023-11-21T01:04:06;2.80;;;2.70;;
12689;SDS011;6409;56.294;14.480;2023-11-21T01:06:33;3.00;;;2.90;;
12689;SDS011;6409;56.294;14.480;2023-11-21T01:09:00;2.87;;;2.77;;
12689;SDS011;6409;56.294;14.480;2023-11-21T01:11:32;2.90;;;2.80;;
12689;SDS011;6409;56.294;14.480;2023-11-21T01:14:02;2.80;;;2.70;;
12689;SDS011;6409;56.294;14.480;2023-11-21T01:16:30;2.70;;;2.60;;
12689;SDS011;6409;56.294;14.480;2023-11-21T01:18:57;2.77;;;2.67;;
12689;SDS011;6409;56.294;14.480;2023-11-21T01:21:25;2.80;;;2.70;;
12689;SDS011;6409;56.294;14.480;2023-11-21T01:23:53;2.70;;;2.60;;
12689;SDS011;6409;56.294;14.480;2023-11-21T01:26:20;2.90;;;2.80;;
12689;SDS011;6409;56.294;14.480;2023-11-21T01:28:47;2.80;;;2.70;;
12689;SDS011;6409;56.294;14.480;2023-11-21T01:31:15;3.10;;;3.00;;
12689;SDS011;6409;56.294;14.480;2023-11-21T01:33:42;3.20;;;3.10;;
12689;SDS011;6409;56.294;14.480;2023-11-21T01:36:09;3.23;;;3.13;;
12689;SDS011;6409;56.294;14.480;2023-11-21T01:38:37;3.30;;;3.20;;
12689;SDS011;6409;56.294;14.480;2023-11-21T01:41:02;3.20;;;3.10;;
12689;SDS011;6409;56.294;14.480;2023-11-21T01:43:31;3.20;;;3.10;;
12689;SDS011;6409;56.294;14.480;2023-11-21T01:45:59;3.50;;;3.40;;
12689;SDS011;6409;56.294;14.480;2023-11-21T01:48:27;3.30;;;3.20;;
12689;SDS011;6409;56.294;14.480;2023-11-21T01:50:54;3.40;;;3.30;;
12689;SDS011;6409;56.294;14.480;2023-11-21T01:53:23;3.40;;;3.30;;
12689;SDS011;6409;56.294;14.480;2023-11-21T01:55:50;3.30;;;3.20;;
12689;SDS011;6409;56.294;14.480;2023-11-21T01:58:18;3.00;;;2.90;;
12689;SDS011;6409;56.294;14.480;2023-11-21T02:00:46;3.27;;;3.13;;
12689;SDS011;6409;56.294;14.480;2023-11-21T02:03:15;3.00;;;2.90;;
12689;SDS011;6409;56.294;14.480;2023-11-21T02:05:44;3.00;;;2.90;;
12689;SDS011;6409;56.294;14.480;2023-11-21T02:08:11;2.80;;;2.70;;
12689;SDS011;6409;56.294;14.480;2023-11-21T02:10:38;2.80;;;2.70;;
12689;SDS011;6409;56.294;14.480;2023-11-21T02:13:05;2.80;;;2.70;;
12689;SDS011;6409;56.294;14.480;2023-11-21T02:15:32;2.70;;;2.60;;
12689;SDS011;6409;56.294;14.480;2023-11-21T02:17:59;2.83;;;2.73;;
12689;SDS011;6409;56.294;14.480;2023-11-21T02:20:28;2.90;;;2.80;;
12689;SDS011;6409;56.294;14.480;2023-11-21T02:22:56;2.80;;;2.70;;
12689;SDS011;6409;56.294;14.480;2023-11-21T02:25:24;2.83;;;2.73;;
12689;SDS011;6409;56.294;14.480;2023-11-21T02:27:51;2.90;;;2.80;;
12689;SDS011;6409;56.294;14.480;2023-11-21T02:30:19;2.97;;;2.87;;
12689;SDS011;6409;56.294;14.480;2023-11-21T02:32:47;2.90;;;2.80;;
12689;SDS011;6409;56.294;14.480;2023-11-21T02:35:14;2.70;;;2.60;;
12689;SDS011;6409;56.294;14.480;2023-11-21T02:37:42;2.60;;;2.50;;
12689;SDS011;6409;56.294;14.480;2023-11-21T02:40:10;2.67;;;2.57;;
12689;SDS011;6409;56.294;14.480;2023-11-21T02:42:38;2.70;;;2.60;;
12689;SDS011;6409;56.294;14.480;2023-11-21T02:45:06;2.60;;;2.50;;
12689;SDS011;6409;56.294;14.480;2023-11-21T02:47:34;2.20;;;2.20;;
12689;SDS011;6409;56.294;14.480;2023-11-21T02:50:01;2.70;;;2.60;;
12689;SDS011;6409;56.294;14.480;2023-11-21T02:52:29;2.50;;;2.40;;
12689;SDS011;6409;56.294;14.480;2023-11-21T02:54:58;2.60;;;2.50;;
12689;SDS011;6409;56.294;14.480;2023-11-21T02:57:26;2.60;;;2.50;;
12689;SDS011;6409;56.294;14.480;2023-11-21T02:59:53;2.60;;;2.50;;
12689;SDS011;6409;56.294;14.480;2023-11-21T03:02:20;2.60;;;2.50;;
12689;SDS011;6409;56.294;14.480;2023-11-21T03:04:48;2.60;;;2.50;;
12689;SDS011;6409;56.294;14.480;2023-11-21T03:07:15;2.60;;;2.50;;
12689;SDS011;6409;56.294;14.480;2023-11-21T03:09:44;2.77;;;2.67;;
12689;SDS011;6409;56.294;14.480;2023-11-21T03:12:11;2.93;;;2.83;;
12689;SDS011;6409;56.294;14.480;2023-11-21T03:14:39;2.90;;;2.80;;
12689;SDS011;6409;56.294;14.480;2023-11-21T03:17:06;2.90;;;2.80;;
12689;SDS011;6409;56.294;14.480;2023-11-21T03:19:33;2.70;;;2.60;;
12689;SDS011;6409;56.294;14.480;2023-11-21T03:22:00;2.70;;;2.60;;
12689;SDS011;6409;56.294;14.480;2023-11-21T03:24:27;2.80;;;2.70;;
12689;SDS011;6409;56.294;14.480;2023-11-21T03:26:54;2.70;;;2.60;;
12689;SDS011;6409;56.294;14.480;2023-11-21T03:29:21;2.50;;;2.40;;
12689;SDS011;6409;56.294;14.480;2023-11-21T03:31:50;2.90;;;2.80;;
12689;SDS011;6409;56.294;14.480;2023-11-21T03:34:22;3.10;;;3.00;;
12689;SDS011;6409;56.294;14.480;2023-11-21T03:36:50;2.60;;;2.50;;
12689;SDS011;6409;56.294;14.480;2023-11-21T03:39:18;2.60;;;2.50;;
12689;SDS011;6409;56.294;14.480;2023-11-21T03:41:45;2.50;;;2.40;;
12689;SDS011;6409;56.294;14.480;2023-11-21T03:44:13;2.47;;;2.37;;
12689;SDS011;6409;56.294;14.480;2023-11-21T03:46:39;2.60;;;2.50;;
12689;SDS011;6409;56.294;14.480;2023-11-21T03:49:08;2.60;;;2.50;;
12689;SDS011;6409;56.294;14.480;2023-11-21T03:51:35;2.60;;;2.50;;
12689;SDS011;6409;56.294;14.480;2023-11-21T03:54:03;2.70;;;2.60;;
12689;SDS011;6409;56.294;14.480;2023-11-21T03:56:30;2.50;;;2.40;;
12689;SDS011;6409;56.294;14.480;2023-11-21T03:58:57;2.57;;;2.47;;
12689;SDS011;6409;56.294;14.480;2023-11-21T04:01:24;2.53;;;2.43;;
12689;SDS011;6409;56.294;14.480;2023-11-21T04:03:51;2.60;;;2.50;;
12689;SDS011;6409;56.294;14.480;2023-11-21T04:06:19;2.60;;;2.50;;
12689;SDS011;6409;56.294;14.480;2023-11-21T04:08:46;2.30;;;2.27;;
12689;SDS011;6409;56.294;14.480;2023-11-21T04:11:13;2.60;;;2.50;;
12689;SDS011;6409;56.294;14.480;2023-11-21T04:13:41;2.90;;;2.80;;
12689;SDS011;6409;56.294;14.480;2023-11-21T04:16:08;3.00;;;2.90;;
12689;SDS011;6409;56.294;14.480;2023-11-21T04:18:35;3.00;;;2.90;;
12689;SDS011;6409;56.294;14.480;2023-11-21T04:21:03;3.10;;;3.00;;
12689;SDS011;6409;56.294;14.480;2023-11-21T04:23:32;3.00;;;2.90;;
12689;SDS011;6409;56.294;14.480;2023-11-21T04:26:00;3.13;;;3.03;;
12689;SDS011;6409;56.294;14.480;2023-11-21T04:28:27;3.17;;;3.07;;
12689;SDS011;6409;56.294;14.480;2023-11-21T04:30:54;3.27;;;3.17;;
12689;SDS011;6409;56.294;14.480;2023-11-21T04:33:21;3.00;;;2.90;;
12689;SDS011;6409;56.294;14.480;2023-11-21T04:35:47;2.87;;;2.77;;
12689;SDS011;6409;56.294;14.480;2023-11-21T04:38:14;2.90;;;2.80;;
12689;SDS011;6409;56.294;14.480;2023-11-21T04:40:43;3.00;;;2.90;;
12689;SDS011;6409;56.294;14.480;2023-11-21T04:43:10;2.80;;;2.70;;
12689;SDS011;6409;56.294;14.480;2023-11-21T04:45:37;3.00;;;2.90;;
12689;SDS011;6409;56.294;14.480;2023-11-21T04:48:06;2.90;;;2.80;;
12689;SDS011;6409;56.294;14.480;2023-11-21T04:50:33;2.77;;;2.67;;
12689;SDS011;6409;56.294;14.480;2023-11-21T04:53:00;2.80;;;2.70;;
12689;SDS011;6409;56.294;14.480;2023-11-21T04:55:27;2.80;;;2.70;;
12689;SDS011;6409;56.294;14.480;2023-11-21T04:57:56;3.00;;;2.90;;
12689;SDS011;6409;56.294;14.480;2023-11-21T05:00:22;2.80;;;2.70;;
12689;SDS011;6409;56.294;14.480;2023-11-21T05:02:49;2.90;;;2.80;;
12689;SDS011;6409;56.294;14.480;2023-11-21T05:05:17;2.77;;;2.67;;
12689;SDS011;6409;56.294;14.480;2023-11-21T05:07:44;2.60;;;2.50;;
12689;SDS011;6409;56.294;14.480;2023-11-21T05:10:11;2.70;;;2.60;;
12689;SDS011;6409;56.294;14.480;2023-11-21T05:12:40;2.80;;;2.70;;
12689;SDS011;6409;56.294;14.480;2023-11-21T05:15:09;2.90;;;2.80;;
12689;SDS011;6409;56.294;14.480;2023-11-21T05:17:36;2.77;;;2.67;;
12689;SDS011;6409;56.294;14.480;2023-11-21T05:20:04;2.80;;;2.70;;
12689;SDS011;6409;56.294;14.480;2023-11-21T05:22:34;2.80;;;2.70;;
12689;SDS011;6409;56.294;14.480;2023-11-21T05:25:01;2.80;;;2.70;;
12689;SDS011;6409;56.294;14.480;2023-11-21T05:27:28;2.77;;;2.67;;
12689;SDS011;6409;56.294;14.480;2023-11-21T05:29:56;2.90;;;2.80;;
12689;SDS011;6409;56.294;14.480;2023-11-21T05:32:24;3.00;;;2.90;;
12689;SDS011;6409;56.294;14.480;2023-11-21T05:34:52;3.10;;;3.00;;
12689;SDS011;6409;56.294;14.480;2023-11-21T05:37:19;3.00;;;2.90;;
12689;SDS011;6409;56.294;14.480;2023-11-21T05:39:46;2.77;;;2.67;;
12689;SDS011;6409;56.294;14.480;2023-11-21T05:42:13;2.90;;;2.80;;
12689;SDS011;6409;56.294;14.480;2023-11-21T05:44:41;3.00;;;2.90;;
12689;SDS011;6409;56.294;14.480;2023-11-21T05:47:08;2.70;;;2.60;;
12689;SDS011;6409;56.294;14.480;2023-11-21T05:49:36;2.63;;;2.53;;
12689;SDS011;6409;56.294;14.480;2023-11-21T05:52:04;2.77;;;2.67;;
12689;SDS011;6409;56.294;14.480;2023-11-21T05:54:31;2.90;;;2.80;;
12689;SDS011;6409;56.294;14.480;2023-11-21T05:56:59;2.90;;;2.80;;
12689;SDS011;6409;56.294;14.480;2023-11-21T05:59:26;3.00;;;2.90;;
12689;SDS011;6409;56.294;14.480;2023-11-21T06:01:53;3.00;;;2.90;;
12689;SDS011;6409;56.294;14.480;2023-11-21T06:04:20;3.20;;;3.10;;
12689;SDS011;6409;56.294;14.480;2023-11-21T06:06:51;2.90;;;2.80;;
12689;SDS011;6409;56.294;14.480;2023-11-21T06:09:19;3.00;;;2.90;;
12689;SDS011;6409;56.294;14.480;2023-11-21T06:11:46;2.70;;;2.60;;
12689;SDS011;6409;56.294;14.480;2023-11-21T06:14:13;2.87;;;2.77;;
12689;SDS011;6409;56.294;14.480;2023-11-21T06:16:43;2.80;;;2.70;;
12689;SDS011;6409;56.294;14.480;2023-11-21T06:19:10;2.50;;;2.40;;
12689;SDS011;6409;56.294;14.480;2023-11-21T06:21:37;2.70;;;2.60;;
12689;SDS011;6409;56.294;14.480;2023-11-21T06:24:06;2.60;;;2.50;;
12689;SDS011;6409;56.294;14.480;2023-11-21T06:26:33;2.50;;;2.40;;
12689;SDS011;6409;56.294;14.480;2023-11-21T06:29:00;2.53;;;2.43;;
12689;SDS011;6409;56.294;14.480;2023-11-21T06:31:28;2.43;;;2.33;;
12689;SDS011;6409;56.294;14.480;2023-11-21T06:33:57;2.27;;;2.27;;
12689;SDS011;6409;56.294;14.480;2023-11-21T06:36:25;2.60;;;2.50;;
12689;SDS011;6409;56.294;14.480;2023-11-21T06:38:52;2.47;;;2.37;;
12689;SDS011;6409;56.294;14.480;2023-11-21T06:41:21;2.60;;;2.50;;
12689;SDS011;6409;56.294;14.480;2023-11-21T06:43:48;2.60;;;2.50;;
12689;SDS011;6409;56.294;14.480;2023-11-21T06:46:15;2.50;;;2.40;;
12689;SDS011;6409;56.294;14.480;2023-11-21T06:48:44;2.30;;;2.30;;
12689;SDS011;6409;56.294;14.480;2023-11-21T06:51:11;2.40;;;2.30;;
12689;SDS011;6409;56.294;14.480;2023-11-21T06:53:38;2.60;;;2.50;;
12689;SDS011;6409;56.294;14.480;2023-11-21T06:56:14;2.60;;;2.50;;
12689;SDS011;6409;56.294;14.480;2023-11-21T06:58:43;2.70;;;2.60;;
12689;SDS011;6409;56.294;14.480;2023-11-21T07:01:11;2.50;;;2.40;;
12689;SDS011;6409;56.294;14.480;2023-11-21T07:03:38;2.70;;;2.60;;
12689;SDS011;6409;56.294;14.480;2023-11-21T07:06:06;2.60;;;2.50;;
12689;SDS011;6409;56.294;14.480;2023-11-21T07:08:33;2.70;;;2.60;;
12689;SDS011;6409;56.294;14.480;2023-11-21T07:11:00;2.83;;;2.73;;
12689;SDS011;6409;56.294;14.480;2023-11-21T07:13:28;2.80;;;2.70;;
12689;SDS011;6409;56.294;14.480;2023-11-21T07:15:56;2.77;;;2.67;;
12689;SDS011;6409;56.294;14.480;2023-11-21T07:18:23;3.10;;;3.00;;
12689;SDS011;6409;56.294;14.480;2023-11-21T07:20:50;3.33;;;3.23;;
12689;SDS011;6409;56.294;14.480;2023-11-21T07:23:18;2.90;;;2.80;;
12689;SDS011;6409;56.294;14.480;2023-11-21T07:25:47;2.90;;;2.80;;
12689;SDS011;6409;56.294;14.480;2023-11-21T07:28:14;2.60;;;2.50;;
12689;SDS011;6409;56.294;14.480;2023-11-21T07:30:41;2.70;;;2.60;;
12689;SDS011;6409;56.294;14.480;2023-11-21T07:33:10;2.77;;;2.67;;
12689;SDS011;6409;56.294;14.480;2023-11-21T07:35:37;2.93;;;2.83;;
12689;SDS011;6409;56.294;14.480;2023-11-21T07:38:04;3.20;;;3.10;;
12689;SDS011;6409;56.294;14.480;2023-11-21T07:40:31;2.97;;;2.87;;
12689;SDS011;6409;56.294;14.480;2023-11-21T07:42:58;2.90;;;2.80;;
12689;SDS011;6409;56.294;14.480;2023-11-21T07:45:25;3.10;;;3.00;;
12689;SDS011;6409;56.294;14.480;2023-11-21T07:47:52;3.10;;;3.00;;
12689;SDS011;6409;56.294;14.480;2023-11-21T07:50:21;3.00;;;2.90;;
12689;SDS011;6409;56.294;14.480;2023-11-21T07:52:48;2.80;;;2.70;;
12689;SDS011;6409;56.294;14.480;2023-11-21T07:55:15;2.70;;;2.60;;
12689;SDS011;6409;56.294;14.480;2023-11-21T07:57:42;2.70;;;2.60;;
12689;SDS011;6409;56.294;14.480;2023-11-21T08:00:09;2.50;;;2.40;;
12689;SDS011;6409;56.294;14.480;2023-11-21T08:02:38;2.60;;;2.50;;
12689;SDS011;6409;56.294;14.480;2023-11-21T08:05:07;2.90;;;2.80;;
12689;SDS011;6409;56.294;14.480;2023-11-21T08:07:37;2.63;;;2.53;;
12689;SDS011;6409;56.294;14.480;2023-11-21T08:10:04;2.67;;;2.57;;
12689;SDS011;6409;56.294;14.480;2023-11-21T08:12:35;2.80;;;2.70;;
12689;SDS011;6409;56.294;14.480;2023-11-21T08:15:02;2.90;;;2.80;;
12689;SDS011;6409;56.294;14.480;2023-11-21T08:17:30;2.80;;;2.70;;
12689;SDS011;6409;56.294;14.480;2023-11-21T08:19:58;2.80;;;2.70;;
12689;SDS011;6409;56.294;14.480;2023-11-21T08:22:24;2.80;;;2.70;;
12689;SDS011;6409;56.294;14.480;2023-11-21T08:24:53;2.60;;;2.50;;
12689;SDS011;6409;56.294;14.480;2023-11-21T08:27:21;2.80;;;2.70;;
12689;SDS011;6409;56.294;14.480;2023-11-21T08:29:48;3.00;;;2.90;;
12689;SDS011;6409;56.294;14.480;2023-11-21T08:32:15;2.70;;;2.60;;
12689;SDS011;6409;56.294;14.480;2023-11-21T08:34:42;2.57;;;2.47;;
12689;SDS011;6409;56.294;14.480;2023-11-21T08:37:10;2.70;;;2.60;;
12689;SDS011;6409;56.294;14.480;2023-11-21T08:39:37;2.73;;;2.63;;
12689;SDS011;6409;56.294;14.480;2023-11-21T08:42:06;2.70;;;2.60;;
12689;SDS011;6409;56.294;14.480;2023-11-21T08:44:33;2.60;;;2.50;;
12689;SDS011;6409;56.294;14.480;2023-11-21T08:47:00;2.80;;;2.70;;
12689;SDS011;6409;56.294;14.480;2023-11-21T08:49:27;2.77;;;2.67;;
12689;SDS011;6409;56.294;14.480;2023-11-21T08:51:55;2.60;;;2.50;;
12689;SDS011;6409;56.294;14.480;2023-11-21T08:54:24;2.70;;;2.60;;
12689;SDS011;6409;56.294;14.480;2023-11-21T08:56:51;2.70;;;2.60;;
12689;SDS011;6409;56.294;14.480;2023-11-21T08:59:19;2.73;;;2.63;;
12689;SDS011;6409;56.294;14.480;2023-11-21T09:01:46;2.90;;;2.80;;
12689;SDS011;6409;56.294;14.480;2023-11-21T09:04:13;3.03;;;2.93;;
12689;SDS011;6409;56.294;14.480;2023-11-21T09:06:40;2.80;;;2.70;;
12689;SDS011;6409;56.294;14.480;2023-11-21T09:09:07;3.00;;;2.90;;
12689;SDS011;6409;56.294;14.480;2023-11-21T09:11:35;3.00;;;2.90;;
12689;SDS011;6409;56.294;14.480;2023-11-21T09:14:02;2.90;;;2.80;;
12689;SDS011;6409;56.294;14.480;2023-11-21T09:16:30;3.20;;;3.10;;
12689;SDS011;6409;56.294;14.480;2023-11-21T09:18:58;3.10;;;3.00;;
12689;SDS011;6409;56.294;14.480;2023-11-21T09:21:25;3.50;;;3.30;;
12689;SDS011;6409;56.294;14.480;2023-11-21T09:23:52;2.80;;;2.70;;
12689;SDS011;6409;56.294;14.480;2023-11-21T09:26:19;3.10;;;3.00;;
12689;SDS011;6409;56.294;14.480;2023-11-21T09:28:46;3.00;;;2.90;;
12689;SDS011;6409;56.294;14.480;2023-11-21T09:31:13;3.20;;;3.10;;
12689;SDS011;6409;56.294;14.480;2023-11-21T09:33:42;3.20;;;3.10;;
12689;SDS011;6409;56.294;14.480;2023-11-21T09:36:13;3.17;;;3.07;;
12689;SDS011;6409;56.294;14.480;2023-11-21T09:38:40;2.90;;;2.80;;
12689;SDS011;6409;56.294;14.480;2023-11-21T09:41:09;3.00;;;2.90;;
12689;SDS011;6409;56.294;14.480;2023-11-21T09:43:42;2.80;;;2.70;;
12689;SDS011;6409;56.294;14.480;2023-11-21T09:46:11;3.00;;;2.90;;
12689;SDS011;6409;56.294;14.480;2023-11-21T09:48:46;3.10;;;3.00;;
12689;SDS011;6409;56.294;14.480;2023-11-21T09:51:15;3.10;;;3.00;;
12689;SDS011;6409;56.294;14.480;2023-11-21T09:53:45;3.17;;;3.07;;
12689;SDS011;6409;56.294;14.480;2023-11-21T09:56:14;3.10;;;3.00;;
12689;SDS011;6409;56.294;14.480;2023-11-21T09:58:44;2.90;;;2.80;;
12689;SDS011;6409;56.294;14.480;2023-11-21T10:01:11;3.10;;;3.00;;
12689;SDS011;6409;56.294;14.480;2023-11-21T10:03:40;2.97;;;2.87;;
12689;SDS011;6409;56.294;14.480;2023-11-21T10:06:09;3.00;;;2.90;;
12689;SDS011;6409;56.294;14.480;2023-11-21T10:08:37;2.87;;;2.77;;
12689;SDS011;6409;56.294;14.480;2023-11-21T10:11:04;3.10;;;3.00;;
12689;SDS011;6409;56.294;14.480;2023-11-21T10:13:32;2.87;;;2.77;;
12689;SDS011;6409;56.294;14.480;2023-11-21T10:16:00;3.00;;;2.90;;
12689;SDS011;6409;56.294;14.480;2023-11-21T10:18:30;3.20;;;3.10;;
12689;SDS011;6409;56.294;14.480;2023-11-21T10:20:59;3.20;;;3.10;;
12689;SDS011;6409;56.294;14.480;2023-11-21T10:23:27;3.40;;;3.30;;
12689;SDS011;6409;56.294;14.480;2023-11-21T10:25:54;3.40;;;3.30;;
12689;SDS011;6409;56.294;14.480;2023-11-21T10:28:22;3.50;;;3.40;;
12689;SDS011;6409;56.294;14.480;2023-11-21T10:30:49;3.30;;;3.20;;
12689;SDS011;6409;56.294;14.480;2023-11-21T10:33:15;3.20;;;3.10;;
12689;SDS011;6409;56.294;14.480;2023-11-21T10:35:43;3.30;;;3.20;;
12689;SDS011;6409;56.294;14.480;2023-11-21T10:38:16;3.30;;;3.20;;
12689;SDS011;6409;56.294;14.480;2023-11-21T10:40:44;3.50;;;3.40;;
12689;SDS011;6409;56.294;14.480;2023-11-21T10:43:13;3.40;;;3.30;;
12689;SDS011;6409;56.294;14.480;2023-11-21T10:45:40;3.50;;;3.40;;
12689;SDS011;6409;56.294;14.480;2023-11-21T10:48:08;3.40;;;3.30;;
12689;SDS011;6409;56.294;14.480;2023-11-21T10:50:36;3.30;;;3.20;;
12689;SDS011;6409;56.294;14.480;2023-11-21T10:53:04;3.30;;;3.20;;
12689;SDS011;6409;56.294;14.480;2023-11-21T10:55:32;3.40;;;3.30;;
12689;SDS011;6409;56.294;14.480;2023-11-21T10:58:01;3.20;;;3.10;;
12689;SDS011;6409;56.294;14.480;2023-11-21T11:00:30;3.13;;;3.03;;
12689;SDS011;6409;56.294;14.480;2023-11-21T11:02:58;3.30;;;3.20;;
12689;SDS011;6409;56.294;14.480;2023-11-21T11:05:27;3.70;;;3.60;;
12689;SDS011;6409;56.294;14.480;2023-11-21T11:07:57;3.67;;;3.57;;
12689;SDS011;6409;56.294;14.480;2023-11-21T11:10:26;3.73;;;3.63;;
12689;SDS011;6409;56.294;14.480;2023-11-21T11:12:54;3.20;;;3.10;;
12689;SDS011;6409;56.294;14.480;2023-11-21T11:15:23;3.30;;;3.20;;
12689;SDS011;6409;56.294;14.480;2023-11-21T11:17:52;3.50;;;3.40;;
12689;SDS011;6409;56.294;14.480;2023-11-21T11:20:22;3.47;;;3.37;;
12689;SDS011;6409;56.294;14.480;2023-11-21T11:22:54;3.27;;;3.17;;
12689;SDS011;6409;56.294;14.480;2023-11-21T11:25:30;3.30;;;3.20;;
12689;SDS011;6409;56.294;14.480;2023-11-21T11:28:07;3.70;;;3.60;;
12689;SDS011;6409;56.294;14.480;2023-11-21T11:30:47;3.50;;;3.40;;
12689;SDS011;6409;56.294;14.480;2023-11-21T11:33:26;3.40;;;3.30;;
12689;SDS011;6409;56.294;14.480;2023-11-21T11:36:02;3.20;;;3.10;;
12689;SDS011;6409;56.294;14.480;2023-11-21T11:38:33;3.20;;;3.10;;
12689;SDS011;6409;56.294;14.480;2023-11-21T11:41:01;3.20;;;3.10;;
12689;SDS011;6409;56.294;14.480;2023-11-21T11:43:29;3.20;;;3.10;;
12689;SDS011;6409;56.294;14.480;2023-11-21T11:45:59;3.20;;;3.10;;
12689;SDS011;6409;56.294;14.480;2023-11-21T11:48:28;3.20;;;3.10;;
12689;SDS011;6409;56.294;14.480;2023-11-21T11:51:05;3.00;;;2.90;;
12689;SDS011;6409;56.294;14.480;2023-11-21T11:53:37;3.07;;;2.97;;
12689;SDS011;6409;56.294;14.480;2023-11-21T11:56:19;3.20;;;3.10;;
12689;SDS011;6409;56.294;14.480;2023-11-21T11:58:48;3.30;;;3.20;;
12689;SDS011;6409;56.294;14.480;2023-11-21T12:01:18;3.20;;;3.10;;
12689;SDS011;6409;56.294;14.480;2023-11-21T12:03:45;3.00;;;2.90;;
12689;SDS011;6409;56.294;14.480;2023-11-21T12:06:56;3.30;;;3.20;;
12689;SDS011;6409;56.294;14.480;2023-11-21T12:09:25;3.20;;;3.10;;
12689;SDS011;6409;56.294;14.480;2023-11-21T12:11:52;3.27;;;3.17;;
12689;SDS011;6409;56.294;14.480;2023-11-21T12:14:21;3.50;;;3.40;;
12689;SDS011;6409;56.294;14.480;2023-11-21T12:16:50;3.10;;;3.00;;
12689;SDS011;6409;56.294;14.480;2023-11-21T12:19:18;3.10;;;3.00;;
12689;SDS011;6409;56.294;14.480;2023-11-21T12:21:45;3.20;;;3.10;;
12689;SDS011;6409;56.294;14.480;2023-11-21T12:24:14;2.80;;;2.70;;
12689;SDS011;6409;56.294;14.480;2023-11-21T12:26:41;3.00;;;2.90;;
12689;SDS011;6409;56.294;14.480;2023-11-21T12:29:09;3.10;;;3.00;;
12689;SDS011;6409;56.294;14.480;2023-11-21T12:31:36;3.00;;;2.90;;
12689;SDS011;6409;56.294;14.480;2023-11-21T12:34:04;3.00;;;2.90;;
12689;SDS011;6409;56.294;14.480;2023-11-21T12:36:31;3.10;;;3.00;;
12689;SDS011;6409;56.294;14.480;2023-11-21T12:39:00;3.20;;;3.10;;
12689;SDS011;6409;56.294;14.480;2023-11-21T12:41:28;3.10;;;3.00;;
12689;SDS011;6409;56.294;14.480;2023-11-21T12:43:56;3.30;;;3.20;;
12689;SDS011;6409;56.294;14.480;2023-11-21T12:46:23;3.50;;;3.40;;
12689;SDS011;6409;56.294;14.480;2023-11-21T12:48:54;3.60;;;3.50;;
12689;SDS011;6409;56.294;14.480;2023-11-21T12:51:23;3.60;;;3.50;;
12689;SDS011;6409;56.294;14.480;2023-11-21T12:53:50;3.50;;;3.40;;
12689;SDS011;6409;56.294;14.480;2023-11-21T12:56:17;3.40;;;3.30;;
12689;SDS011;6409;56.294;14.480;2023-11-21T12:58:45;3.60;;;3.50;;
12689;SDS011;6409;56.294;14.480;2023-11-21T13:01:13;3.70;;;3.60;;
12689;SDS011;6409;56.294;14.480;2023-11-21T13:03:44;3.50;;;3.40;;
12689;SDS011;6409;56.294;14.480;2023-11-21T13:06:13;3.30;;;3.20;;
12689;SDS011;6409;56.294;14.480;2023-11-21T13:08:43;3.60;;;3.50;;
12689;SDS011;6409;56.294;14.480;2023-11-21T13:11:11;3.80;;;3.60;;
12689;SDS011;6409;56.294;14.480;2023-11-21T13:13:40;3.70;;;3.60;;
12689;SDS011;6409;56.294;14.480;2023-11-21T13:16:08;3.80;;;3.70;;
12689;SDS011;6409;56.294;14.480;2023-11-21T13:18:36;3.90;;;3.80;;
12689;SDS011;6409;56.294;14.480;2023-11-21T13:21:05;4.10;;;4.00;;
12689;SDS011;6409;56.294;14.480;2023-11-21T13:23:36;3.80;;;3.70;;
12689;SDS011;6409;56.294;14.480;2023-11-21T13:26:05;3.90;;;3.80;;
12689;SDS011;6409;56.294;14.480;2023-11-21T13:28:33;3.80;;;3.70;;
12689;SDS011;6409;56.294;14.480;2023-11-21T13:31:02;3.90;;;3.80;;
12689;SDS011;6409;56.294;14.480;2023-11-21T13:33:34;3.50;;;3.40;;
12689;SDS011;6409;56.294;14.480;2023-11-21T13:36:03;3.50;;;3.40;;
12689;SDS011;6409;56.294;14.480;2023-11-21T13:38:33;3.60;;;3.50;;
12689;SDS011;6409;56.294;14.480;2023-11-21T13:41:01;3.80;;;3.70;;
12689;SDS011;6409;56.294;14.480;2023-11-21T13:43:33;3.80;;;3.70;;
12689;SDS011;6409;56.294;14.480;2023-11-21T13:46:02;4.00;;;3.90;;
12689;SDS011;6409;56.294;14.480;2023-11-21T13:48:38;3.90;;;3.80;;
12689;SDS011;6409;56.294;14.480;2023-11-21T13:51:08;4.00;;;3.90;;
12689;SDS011;6409;56.294;14.480;2023-11-21T13:53:42;4.10;;;4.00;;
12689;SDS011;6409;56.294;14.480;2023-11-21T13:56:09;4.00;;;3.90;;
12689;SDS011;6409;56.294;14.480;2023-11-21T13:58:39;3.90;;;3.80;;
12689;SDS011;6409;56.294;14.480;2023-11-21T14:01:11;3.80;;;3.70;;
12689;SDS011;6409;56.294;14.480;2023-11-21T14:03:57;3.80;;;3.70;;
12689;SDS011;6409;56.294;14.480;2023-11-21T14:06:33;3.80;;;3.70;;
12689;SDS011;6409;56.294;14.480;2023-11-21T14:09:10;3.90;;;3.80;;
12689;SDS011;6409;56.294;14.480;2023-11-21T14:11:39;3.97;;;3.87;;
12689;SDS011;6409;56.294;14.480;2023-11-21T14:14:07;4.00;;;3.90;;
12689;SDS011;6409;56.294;14.480;2023-11-21T14:16:34;3.90;;;3.80;;
12689;SDS011;6409;56.294;14.480;2023-11-21T14:19:02;3.70;;;3.60;;
12689;SDS011;6409;56.294;14.480;2023-11-21T14:21:40;3.70;;;3.60;;
12689;SDS011;6409;56.294;14.480;2023-11-21T14:24:09;3.70;;;3.60;;
12689;SDS011;6409;56.294;14.480;2023-11-21T14:26:38;3.70;;;3.60;;
12689;SDS011;6409;56.294;14.480;2023-11-21T14:29:06;3.70;;;3.60;;
12689;SDS011;6409;56.294;14.480;2023-11-21T14:31:37;3.70;;;3.60;;
12689;SDS011;6409;56.294;14.480;2023-11-21T14:34:04;3.80;;;3.70;;
12689;SDS011;6409;56.294;14.480;2023-11-21T14:36:32;3.60;;;3.50;;
12689;SDS011;6409;56.294;14.480;2023-11-21T14:38:59;3.60;;;3.50;;
12689;SDS011;6409;56.294;14.480;2023-11-21T14:41:26;3.90;;;3.80;;
12689;SDS011;6409;56.294;14.480;2023-11-21T14:43:54;3.60;;;3.50;;
12689;SDS011;6409;56.294;14.480;2023-11-21T14:46:23;3.67;;;3.57;;
12689;SDS011;6409;56.294;14.480;2023-11-21T14:48:50;3.60;;;3.50;;
12689;SDS011;6409;56.294;14.480;2023-11-21T14:51:27;3.60;;;3.50;;
12689;SDS011;6409;56.294;14.480;2023-11-21T14:53:56;3.60;;;3.50;;